Weather at Toussus-le-Noble Airport

Public forecast

Using degrees Celsius for public forecast. Weather courtesy of forecast.io.

Current aviation weather report (METAR) for Toussus-le-Noble Airport

Retrieved 2020/10/30 04:30 UTC (0 seconds ago):

LFPN 300430Z AUTO 22011KT 9999 FEW010 BKN021 BKN029 13/11 Q1022

Closest aviation forecast (TAF) to Toussus-le-Noble Airport

Closest forecast is Villacoublay-Vélizy (BA 107) Air Base, 3.6 nm (6.7 km) ENE. Retrieved 2020-10-30 03:47 UTC (14 minutes ago):

TAF LFPV 300200Z 3003/3103 23010G20KT 9999 OVC012 TEMPO 3003/3006 OVC008 BECMG 3010/3011 BKN025